Time;durP1;ratioP1;P1;durP2;ratioP2;P2;SDS_P1;SDS_P2;PMS_P1;PMS_P2;Temp;Humidity;BMP_temperature;BMP_pressure;BME280_temperature;BME280_humidity;BME280_pressure;Samples;Min_cycle;Max_cycle;Signal;HPM_P1;HPM_P2
2021/04/23 00:01:47;;;;;;;11.43;5.50;;;20.90;65.10;;;;;;5164108;27;20443;-37
2021/04/23 00:04:18;;;;;;;10.33;5.33;;;20.80;64.20;;;;;;5164493;27;20563;-38
2021/04/23 00:06:53;;;;;;;6.23;5.10;;;20.90;64.40;;;;;;5164141;27;20503;-38
2021/04/23 00:09:25;;;;;;;7.63;4.67;;;21.10;65.00;;;;;;5163913;27;20449;-36
2021/04/23 00:11:58;;;;;;;10.57;5.47;;;21.30;64.10;;;;;;5163865;27;20812;-36
2021/04/23 00:14:31;;;;;;;8.80;5.20;;;21.30;63.40;;;;;;5164484;27;20465;-34
2021/04/23 00:17:01;;;;;;;7.70;4.87;;;21.50;62.00;;;;;;5164056;27;20414;-40
2021/04/23 00:19:31;;;;;;;7.97;5.00;;;21.50;62.90;;;;;;5164101;27;20522;-36
2021/04/23 00:22:02;;;;;;;8.53;4.93;;;21.00;62.70;;;;;;5164160;27;20493;-37
2021/04/23 00:24:32;;;;;;;8.87;5.13;;;20.90;63.10;;;;;;5164257;27;20447;-36
2021/04/23 00:27:04;;;;;;;6.63;5.10;;;20.60;64.60;;;;;;5163587;27;20474;-37
2021/04/23 00:29:34;;;;;;;9.70;5.60;;;20.60;65.40;;;;;;5164126;27;20448;-36
2021/04/23 00:32:06;;;;;;;8.63;5.47;;;20.50;63.90;;;;;;5163937;27;20471;-39
2021/04/23 00:34:36;;;;;;;9.27;5.80;;;20.60;64.70;;;;;;5164230;27;20558;-39
2021/04/23 00:37:07;;;;;;;8.00;6.00;;;20.60;64.90;;;;;;5164960;27;20470;-38
2021/04/23 00:39:38;;;;;;;8.30;5.70;;;20.50;64.00;;;;;;5168089;27;20829;-37
2021/04/23 00:42:08;;;;;;;9.93;6.50;;;20.50;66.20;;;;;;5167163;27;20902;-35
2021/04/23 00:44:39;;;;;;;8.97;5.30;;;20.40;65.80;;;;;;5167748;27;20516;-38
2021/04/23 00:47:09;;;;;;;8.47;5.97;;;20.30;66.00;;;;;;5167316;27;20452;-35
2021/04/23 00:49:39;;;;;;;10.07;5.83;;;20.40;66.00;;;;;;5167308;27;20539;-37
2021/04/23 00:52:10;;;;;;;9.20;5.30;;;20.40;66.60;;;;;;5167352;27;20471;-39
2021/04/23 00:54:41;;;;;;;8.43;5.97;;;20.20;64.80;;;;;;5167858;27;20444;-39
2021/04/23 00:57:11;;;;;;;10.07;5.30;;;20.10;67.40;;;;;;5166737;27;20490;-36
2021/04/23 00:59:42;;;;;;;10.77;5.93;;;19.90;67.40;;;;;;5167063;27;20514;-36
2021/04/23 01:02:14;;;;;;;8.27;6.03;;;19.80;67.70;;;;;;5167007;27;20426;-37
2021/04/23 01:04:46;;;;;;;9.80;5.80;;;19.80;67.90;;;;;;5167512;27;20478;-37
2021/04/23 01:07:17;;;;;;;8.67;5.70;;;19.70;69.00;;;;;;5166850;27;20806;-37
2021/04/23 01:09:47;;;;;;;8.03;5.10;;;19.80;67.90;;;;;;5167502;27;20440;-39
2021/04/23 01:12:17;;;;;;;9.43;4.33;;;19.80;67.10;;;;;;5166613;27;20458;-38
2021/04/23 01:14:47;;;;;;;7.10;5.13;;;19.90;68.00;;;;;;5167297;27;20444;-34
2021/04/23 01:17:18;;;;;;;12.53;5.90;;;19.80;69.10;;;;;;5166846;27;20500;-35
2021/04/23 01:19:48;;;;;;;7.93;5.20;;;19.80;66.90;;;;;;5166936;27;20454;-38
2021/04/23 01:22:19;;;;;;;10.20;4.87;;;19.80;67.70;;;;;;5167099;27;20424;-36
2021/04/23 01:24:49;;;;;;;6.70;4.97;;;19.80;68.30;;;;;;5158743;27;20480;-38
2021/04/23 01:27:19;;;;;;;7.80;4.97;;;19.80;67.50;;;;;;5145248;27;20436;-36
2021/04/23 01:29:49;;;;;;;9.93;5.43;;;19.70;66.50;;;;;;5145972;27;20628;-40
2021/04/23 01:32:19;;;;;;;7.50;4.77;;;19.70;67.30;;;;;;5146009;27;20864;-37
2021/04/23 01:34:49;;;;;;;8.53;5.13;;;19.70;68.50;;;;;;5146000;27;20577;-34
2021/04/23 01:37:21;;;;;;;8.70;5.13;;;19.60;68.80;;;;;;5145935;27;20452;-37
2021/04/23 01:39:51;;;;;;;9.33;5.67;;;19.50;68.00;;;;;;5145407;27;20587;-36
2021/04/23 01:42:22;;;;;;;8.97;5.40;;;19.60;68.90;;;;;;5144761;27;20502;-37
2021/04/23 01:44:57;;;;;;;21.33;19.23;;;19.60;68.80;;;;;;5145878;27;20444;-36
2021/04/23 01:47:27;;;;;;;8.67;6.80;;;19.60;68.60;;;;;;5145427;27;20501;-36
2021/04/23 01:49:57;;;;;;;10.73;6.37;;;19.40;69.40;;;;;;5152786;27;20451;-37
2021/04/23 01:52:28;;;;;;;11.47;6.03;;;19.40;70.40;;;;;;5166482;27;20432;-38
2021/04/23 01:54:59;;;;;;;10.37;6.10;;;19.30;70.80;;;;;;5166354;27;20444;-36
2021/04/23 01:57:29;;;;;;;7.90;5.13;;;19.40;69.10;;;;;;5165385;27;20443;-36
2021/04/23 01:59:59;;;;;;;8.97;5.43;;;19.20;70.80;;;;;;5166314;27;20555;-34
2021/04/23 02:02:29;;;;;;;14.27;5.40;;;19.20;71.30;;;;;;5166301;27;20467;-35
2021/04/23 02:04:59;;;;;;;10.00;5.10;;;19.10;71.10;;;;;;5166370;27;20798;-38
2021/04/23 02:07:31;;;;;;;9.23;5.60;;;19.00;70.60;;;;;;5166538;27;20432;-35
2021/04/23 02:10:01;;;;;;;14.93;5.83;;;18.80;71.70;;;;;;5166171;27;20448;-38
2021/04/23 02:12:31;;;;;;;13.13;6.20;;;18.70;72.50;;;;;;5165266;27;20440;-35
2021/04/23 02:15:01;;;;;;;7.93;5.40;;;18.50;74.20;;;;;;5166406;27;20443;-33
2021/04/23 02:17:31;;;;;;;7.60;5.30;;;18.40;75.50;;;;;;5166033;27;20578;-35
2021/04/23 02:20:01;;;;;;;13.10;5.77;;;18.20;76.30;;;;;;5166012;27;20446;-35
2021/04/23 02:22:32;;;;;;;10.97;5.87;;;18.10;77.60;;;;;;5166287;27;20476;-37
2021/04/23 02:25:03;;;;;;;12.63;5.90;;;18.00;77.50;;;;;;5155121;27;20449;-37
2021/04/23 02:27:33;;;;;;;9.67;5.40;;;17.80;78.60;;;;;;5144239;27;20423;-36
2021/04/23 02:30:06;;;;;;;7.87;6.07;;;17.60;79.90;;;;;;5144868;27;20513;-36
2021/04/23 02:32:36;;;;;;;9.40;5.20;;;17.60;79.70;;;;;;5144770;27;20423;-36
2021/04/23 02:35:09;;;;;;;9.27;5.07;;;17.40;80.60;;;;;;5145456;27;20458;-36
2021/04/23 02:37:41;;;;;;;8.17;5.47;;;17.30;81.30;;;;;;5144988;27;20444;-34
2021/04/23 02:40:14;;;;;;;12.10;6.10;;;17.20;82.20;;;;;;5144708;27;20463;-35
2021/04/23 02:42:46;;;;;;;8.60;5.40;;;17.10;83.30;;;;;;5144070;27;20548;-38
2021/04/23 02:45:22;;;;;;;10.30;6.30;;;17.00;82.90;;;;;;5145245;27;20587;-37
2021/04/23 02:47:53;;;;;;;8.53;5.40;;;16.90;83.00;;;;;;5144594;27;20440;-35
2021/04/23 02:50:25;;;;;;;11.00;5.70;;;16.80;83.30;;;;;;5157350;27;20466;-37
2021/04/23 02:52:57;;;;;;;8.10;4.87;;;16.70;83.80;;;;;;5165804;27;20432;-37
2021/04/23 02:55:28;;;;;;;10.93;5.70;;;16.60;83.50;;;;;;5165381;27;20443;-32
2021/04/23 02:58:00;;;;;;;12.27;5.50;;;16.50;83.60;;;;;;5164735;27;20949;-37
2021/04/23 03:00:33;;;;;;;9.83;4.97;;;16.50;84.10;;;;;;5165189;27;20466;-34
2021/04/23 03:03:03;;;;;;;9.23;4.93;;;16.40;82.70;;;;;;5165256;27;20466;-35
2021/04/23 03:05:33;;;;;;;9.77;5.73;;;16.20;81.80;;;;;;5165700;27;20432;-36
2021/04/23 03:08:05;;;;;;;10.83;5.60;;;16.10;83.30;;;;;;5165256;27;20514;-33
2021/04/23 03:10:37;;;;;;;9.10;4.70;;;16.00;84.10;;;;;;5165028;27;20496;-37
2021/04/23 03:13:11;;;;;;;9.27;4.63;;;15.90;82.70;;;;;;5164399;27;20979;-36
2021/04/23 03:15:42;;;;;;;9.03;5.57;;;15.80;83.10;;;;;;5165281;27;20440;-35
2021/04/23 03:18:13;;;;;;;9.80;5.23;;;15.70;83.30;;;;;;5164679;27;20444;-37
2021/04/23 03:20:43;;;;;;;11.87;5.60;;;15.60;83.40;;;;;;5165339;27;20444;-36
2021/04/23 03:23:15;;;;;;;13.33;5.47;;;15.50;83.00;;;;;;5164833;27;20447;-35
2021/04/23 03:25:45;;;;;;;9.47;5.37;;;15.40;83.70;;;;;;5148446;27;20546;-34
2021/04/23 03:28:16;;;;;;;13.70;5.63;;;15.40;84.20;;;;;;5143490;27;20559;-38
2021/04/23 03:30:47;;;;;;;10.77;5.00;;;15.30;84.50;;;;;;5144185;28;20489;-36
2021/04/23 03:33:17;;;;;;;11.83;5.30;;;15.20;85.10;;;;;;5144069;28;20432;-31
2021/04/23 03:35:49;;;;;;;11.43;5.43;;;15.10;85.10;;;;;;5144725;28;20425;-32
2021/04/23 03:38:21;;;;;;;11.47;5.40;;;15.00;86.00;;;;;;5144140;28;20445;-31
2021/04/23 03:40:52;;;;;;;15.13;5.20;;;14.90;86.50;;;;;;5144149;28;20462;-34
2021/04/23 03:43:23;;;;;;;10.43;5.00;;;14.80;86.70;;;;;;5143209;28;20477;-35
2021/04/23 03:45:53;;;;;;;10.10;5.07;;;14.70;87.60;;;;;;5144169;28;20441;-32
2021/04/23 03:48:24;;;;;;;8.40;5.23;;;14.60;88.20;;;;;;5143927;28;20617;-35
2021/04/23 03:50:54;;;;;;;11.33;4.57;;;14.60;88.50;;;;;;5160623;27;20436;-35
2021/04/23 03:53:25;;;;;;;11.93;5.47;;;14.50;89.80;;;;;;5164845;27;20454;-35
2021/04/23 03:55:57;;;;;;;14.60;5.00;;;14.40;90.00;;;;;;5164832;27;20459;-38
2021/04/23 03:58:27;;;;;;;8.50;4.93;;;14.30;90.50;;;;;;5163990;27;20440;-38
2021/04/23 04:00:59;;;;;;;7.73;4.80;;;14.30;91.00;;;;;;5164843;27;20492;-36
2021/04/23 04:03:30;;;;;;;9.57;4.80;;;14.20;91.00;;;;;;5164432;27;20465;-33
2021/04/23 04:06:00;;;;;;;11.63;4.97;;;14.20;91.10;;;;;;5165365;27;20435;-38
2021/04/23 04:08:32;;;;;;;11.83;4.83;;;14.20;91.40;;;;;;5164771;27;20480;-36
2021/04/23 04:11:03;;;;;;;13.50;4.90;;;14.20;90.90;;;;;;5164787;27;20443;-37
2021/04/23 04:13:33;;;;;;;11.87;4.83;;;14.20;91.10;;;;;;5167525;27;20469;-36
2021/04/23 04:16:04;;;;;;;10.97;4.60;;;14.20;91.00;;;;;;5169059;27;20461;-35
2021/04/23 04:18:35;;;;;;;14.90;4.80;;;14.20;90.90;;;;;;5168766;27;20512;-37
2021/04/23 04:21:05;;;;;;;8.50;5.40;;;14.20;91.20;;;;;;5168800;27;20424;-34
2021/04/23 04:23:37;;;;;;;9.60;5.27;;;14.20;91.30;;;;;;5168508;27;20504;-36
2021/04/23 04:26:07;;;;;;;9.90;5.50;;;14.10;91.80;;;;;;5148921;27;20449;-36
2021/04/23 04:28:37;;;;;;;11.20;4.93;;;14.10;91.60;;;;;;5147104;27;20444;-35
2021/04/23 04:31:07;;;;;;;10.43;4.50;;;14.10;91.30;;;;;;5147719;27;20548;-35
2021/04/23 04:33:49;;;;;;;8.50;5.30;;;14.00;91.10;;;;;;5148026;27;20527;-34
2021/04/23 04:36:19;;;;;;;13.10;4.60;;;14.00;91.10;;;;;;5147884;27;20439;-33
2021/04/23 04:38:50;;;;;;;9.20;4.70;;;14.00;91.10;;;;;;5147677;27;20571;-32
2021/04/23 04:41:20;;;;;;;8.80;4.40;;;14.00;90.70;;;;;;5147017;27;20449;-31
2021/04/23 04:43:51;;;;;;;10.50;5.30;;;13.90;90.90;;;;;;5147608;27;20479;-35
2021/04/23 04:46:22;;;;;;;8.67;4.40;;;13.90;90.90;;;;;;5147385;27;20441;-35
2021/04/23 04:48:52;;;;;;;13.17;5.23;;;13.80;91.30;;;;;;5147605;27;20436;-35
2021/04/23 04:51:22;;;;;;;8.50;4.87;;;13.70;91.90;;;;;;5167682;27;20489;-35
2021/04/23 04:53:54;;;;;;;11.60;5.87;;;13.70;91.70;;;;;;5167895;27;20966;-36
2021/04/23 04:56:24;;;;;;;11.83;5.77;;;13.70;91.90;;;;;;5166814;27;20460;-35
2021/04/23 04:58:54;;;;;;;13.27;4.83;;;13.60;92.60;;;;;;5167902;27;20492;-35
2021/04/23 05:01:24;;;;;;;12.87;5.47;;;13.50;93.20;;;;;;5167751;27;20439;-35
2021/04/23 05:03:54;;;;;;;9.93;5.40;;;13.50;92.90;;;;;;5167882;27;20455;-38
2021/04/23 05:06:25;;;;;;;11.33;5.50;;;13.50;93.20;;;;;;5167342;27;20447;-37
2021/04/23 05:08:56;;;;;;;11.63;4.97;;;13.40;93.20;;;;;;5167605;27;20450;-37
2021/04/23 05:11:26;;;;;;;11.37;4.97;;;13.20;93.50;;;;;;5166511;27;20444;-37
2021/04/23 05:13:59;;;;;;;13.27;5.67;;;13.20;93.90;;;;;;5167276;27;20440;-36
2021/04/23 05:16:29;;;;;;;11.03;5.60;;;13.20;94.10;;;;;;5167393;27;20868;-31
2021/04/23 05:19:18;;;;;;;12.13;4.93;;;13.00;94.10;;;;;;5167670;27;20578;-35
2021/04/23 05:21:59;;;;;;;7.90;4.50;;;12.90;94.40;;;;;;5166092;27;20447;-34
2021/04/23 05:24:30;;;;;;;9.20;4.80;;;12.80;94.70;;;;;;5161555;27;20459;-37
2021/04/23 05:27:05;;;;;;;10.50;4.63;;;12.70;95.30;;;;;;5145643;27;20494;-35
2021/04/23 05:29:48;;;;;;;16.73;5.70;;;12.60;96.10;;;;;;5146602;27;20448;-37
2021/04/23 05:32:44;;;;;;;9.33;4.97;;;12.50;96.70;;;;;;5145849;27;20482;-32
2021/04/23 05:35:17;;;;;;;9.27;5.20;;;12.40;97.60;;;;;;5146393;27;20467;-34
2021/04/23 05:37:48;;;;;;;9.27;4.80;;;12.40;97.30;;;;;;5146273;27;20191;-35
2021/04/23 05:40:35;;;;;;;11.40;5.40;;;12.30;98.10;;;;;;5146422;27;21328;-38
2021/04/23 05:46:20;;;;;;;11.63;5.88;;;12.30;98.20;;;;;;5146031;27;20211;-36
2021/04/23 05:49:25;;;;;;;10.90;6.82;;;12.20;99.10;;;;;;5146169;27;20268;-37
2021/04/23 05:52:10;;;;;;;8.10;5.70;;;12.20;99.90;;;;;;5145565;27;20271;-32
2021/04/23 05:55:02;;;;;;;9.90;5.50;;;12.00;99.90;;;;;;5146026;27;20431;-35
2021/04/23 05:57:38;;;;;;;10.40;5.32;;;11.90;99.90;;;;;;5144895;27;20210;-35
2021/04/23 06:00:11;;;;;;;11.57;5.20;;;12.00;99.90;;;;;;5145582;27;20248;-33
2021/04/23 06:02:43;;;;;;;9.48;5.55;;;11.90;99.90;;;;;;5145291;27;20948;-33
2021/04/23 06:05:14;;;;;;;9.73;5.82;;;11.80;99.90;;;;;;5145500;27;20210;-34
2021/04/23 06:07:44;;;;;;;12.68;5.38;;;11.80;99.90;;;;;;5145525;27;20252;-35
2021/04/23 06:10:17;;;;;;;10.17;5.50;;;11.70;99.90;;;;;;5145596;27;20219;-35
2021/04/23 06:13:14;;;;;;;13.88;5.57;;;11.70;99.90;;;;;;5144288;27;20441;-35
2021/04/23 06:15:49;;;;;;;12.75;5.82;;;11.60;99.90;;;;;;5145313;27;20645;-32
2021/04/23 06:18:19;;;;;;;12.90;6.07;;;11.50;99.90;;;;;;5145127;27;20211;-36
2021/04/23 06:20:49;;;;;;;14.98;7.25;;;11.50;99.90;;;;;;5145240;27;20484;-35
2021/04/23 06:23:25;;;;;;;13.63;6.63;;;11.50;99.90;;;;;;5144804;27;20559;-35
2021/04/23 06:26:06;;;;;;;12.55;5.95;;;11.40;99.90;;;;;;5145645;27;20199;-37
2021/04/23 06:28:38;;;;;;;9.55;4.80;;;11.30;99.90;;;;;;5144312;27;20292;-35
2021/04/23 06:31:08;;;;;;;10.27;5.47;;;11.30;99.90;;;;;;5144958;27;20210;-35
2021/04/23 06:33:40;;;;;;;14.68;6.47;;;11.30;99.90;;;;;;5144467;27;20517;-32
2021/04/23 06:36:10;;;;;;;11.73;5.68;;;11.20;99.90;;;;;;5144544;27;20646;-36
2021/04/23 06:38:41;;;;;;;17.70;5.75;;;11.10;99.90;;;;;;5144725;27;20260;-34
2021/04/23 06:41:12;;;;;;;11.02;5.85;;;11.10;99.90;;;;;;5145149;27;20203;-35
2021/04/23 06:43:45;;;;;;;11.75;6.43;;;11.00;99.90;;;;;;5143715;27;20239;-35
2021/04/23 06:46:15;;;;;;;18.38;6.10;;;11.20;99.90;;;;;;5144781;27;20202;-33
2021/04/23 06:48:49;;;;;;;11.43;5.90;;;11.20;99.90;;;;;;5144777;27;20351;-34
2021/04/23 06:51:21;;;;;;;14.50;5.80;;;11.20;99.90;;;;;;5164329;27;20258;-35
2021/04/23 06:53:51;;;;;;;11.90;5.90;;;11.20;99.90;;;;;;5165328;27;20198;-35
2021/04/23 06:56:21;;;;;;;10.93;5.60;;;11.10;99.90;;;;;;5164920;27;20428;-37
2021/04/23 06:58:52;;;;;;;8.45;5.15;;;11.00;99.90;;;;;;5165419;27;20813;-32
2021/04/23 07:01:23;;;;;;;10.25;5.50;;;11.00;99.90;;;;;;5165133;27;20235;-34
2021/04/23 07:03:55;;;;;;;9.15;5.00;;;10.90;99.90;;;;;;5165132;27;20577;-33
2021/04/23 07:06:25;;;;;;;12.32;5.70;;;10.90;99.90;;;;;;5165138;27;20217;-33
2021/04/23 07:08:58;;;;;;;10.05;6.20;;;10.70;99.90;;;;;;5165447;27;20235;-37
2021/04/23 07:12:01;;;;;;;9.45;5.82;;;10.60;99.90;;;;;;5164967;27;20189;-37
2021/04/23 07:14:32;;;;;;;10.75;6.18;;;10.50;99.90;;;;;;5165355;27;20202;-37
2021/04/23 07:17:04;;;;;;;12.52;4.90;;;10.50;99.90;;;;;;5164860;27;20202;-35
2021/04/23 07:19:35;;;;;;;10.23;5.38;;;10.50;99.90;;;;;;5165035;27;20255;-37
2021/04/23 07:22:06;;;;;;;15.10;5.47;;;10.50;99.90;;;;;;5164879;27;20230;-34
2021/04/23 07:24:36;;;;;;;11.43;5.80;;;10.50;99.90;;;;;;5158119;27;20215;-35
2021/04/23 07:27:07;;;;;;;7.75;5.03;;;10.50;99.90;;;;;;5143201;27;20384;-32
2021/04/23 07:29:47;;;;;;;10.07;4.80;;;10.40;99.90;;;;;;5144665;27;20220;-37
2021/04/23 07:32:17;;;;;;;9.43;5.45;;;10.50;99.90;;;;;;5143993;28;20207;-33
2021/04/23 07:34:48;;;;;;;15.75;5.88;;;10.50;99.90;;;;;;5144029;28;20282;-33
2021/04/23 07:37:18;;;;;;;11.50;5.90;;;10.50;99.90;;;;;;5143778;28;20214;-36
2021/04/23 07:39:48;;;;;;;15.00;6.55;;;10.40;99.90;;;;;;5150211;27;20229;-34
2021/04/23 07:42:18;;;;;;;12.85;6.50;;;10.50;99.90;;;;;;5164070;27;20183;-36
2021/04/23 07:44:50;;;;;;;11.35;5.07;;;10.50;99.90;;;;;;5164849;27;20246;-34
2021/04/23 07:47:20;;;;;;;17.95;6.30;;;10.60;99.90;;;;;;5166045;27;20202;-33
2021/04/23 07:49:50;;;;;;;12.02;5.00;;;10.60;99.90;;;;;;5168943;27;20202;-36
2021/04/23 07:52:21;;;;;;;13.25;6.10;;;10.60;99.90;;;;;;5168855;27;20206;-36
2021/04/23 07:54:51;;;;;;;13.65;6.22;;;10.60;99.90;;;;;;5168732;27;20525;-36
2021/04/23 07:57:21;;;;;;;12.52;6.10;;;10.60;99.90;;;;;;5168139;27;20199;-36
2021/04/23 07:59:53;;;;;;;11.82;6.30;;;10.60;99.90;;;;;;5168739;27;20234;-34
2021/04/23 08:02:23;;;;;;;12.80;7.53;;;10.70;99.90;;;;;;5168332;27;20213;-35
2021/04/23 08:04:53;;;;;;;15.40;5.32;;;10.60;99.90;;;;;;5168469;27;20300;-35
2021/04/23 08:07:44;;;;;;;12.55;5.60;;;10.50;99.90;;;;;;5168419;27;20286;-37
2021/04/23 08:10:16;;;;;;;14.27;4.97;;;10.40;99.90;;;;;;5168694;27;20210;-35
2021/04/23 08:12:47;;;;;;;11.73;6.57;;;10.30;99.90;;;;;;5167602;27;20187;-38
2021/04/23 08:15:19;;;;;;;14.05;6.20;;;10.30;99.90;;;;;;5149108;27;20203;-33
2021/04/23 08:17:49;;;;;;;11.30;6.03;;;10.20;99.90;;;;;;5147382;27;20215;-35
2021/04/23 08:20:20;;;;;;;15.48;5.78;;;10.10;99.90;;;;;;5147957;27;20239;-35
2021/04/23 08:22:51;;;;;;;9.45;5.40;;;10.10;99.90;;;;;;5147430;27;20203;-34
2021/04/23 08:25:22;;;;;;;8.38;5.05;;;10.00;99.90;;;;;;5147173;27;20286;-37
2021/04/23 08:27:52;;;;;;;11.38;5.93;;;10.10;99.90;;;;;;5146597;27;20203;-33
2021/04/23 08:30:26;;;;;;;10.98;5.88;;;10.10;99.90;;;;;;5147600;27;20323;-32
2021/04/23 08:32:57;;;;;;;10.02;5.07;;;10.00;99.90;;;;;;5147329;27;20555;-33
2021/04/23 08:35:28;;;;;;;10.23;5.53;;;9.80;99.90;;;;;;5147477;27;20195;-35
2021/04/23 08:37:58;;;;;;;10.23;6.25;;;9.80;99.90;;;;;;5147128;27;20259;-35
2021/04/23 08:40:28;;;;;;;8.60;5.47;;;9.90;99.90;;;;;;5147264;27;20260;-34
2021/04/23 08:42:59;;;;;;;13.57;5.63;;;9.80;99.90;;;;;;5153277;27;20548;-38
2021/04/23 08:45:30;;;;;;;11.43;5.03;;;9.80;99.90;;;;;;5166600;27;20250;-37
2021/04/23 08:48:01;;;;;;;11.05;5.28;;;9.80;99.90;;;;;;5166550;27;20183;-34
2021/04/23 08:50:31;;;;;;;7.90;5.00;;;9.80;99.90;;;;;;5167083;27;20211;-32
2021/04/23 08:53:01;;;;;;;9.65;5.53;;;9.70;99.90;;;;;;5166469;27;20270;-34
2021/04/23 08:55:31;;;;;;;9.25;5.60;;;9.70;99.90;;;;;;5166286;27;20203;-33
2021/04/23 08:58:12;;;;;;;15.93;5.57;;;9.60;99.90;;;;;;5165298;27;20289;-34
2021/04/23 09:00:44;;;;;;;16.27;7.07;;;9.60;99.90;;;;;;5166397;27;20226;-30
2021/04/23 09:03:18;;;;;;;14.82;6.00;;;9.60;99.90;;;;;;5166293;27;20267;-39
2021/04/23 09:06:10;;;;;;;12.48;5.50;;;9.50;99.90;;;;;;5166605;27;20209;-34
2021/04/23 09:09:00;;;;;;;9.35;5.38;;;9.50;99.90;;;;;;5166574;27;20244;-36
2021/04/23 09:11:33;;;;;;;12.25;6.82;;;9.40;99.90;;;;;;5165407;27;20218;-36
2021/04/23 09:14:05;;;;;;;19.15;6.22;;;9.40;99.90;;;;;;5157905;27;20203;-31
2021/04/23 09:16:55;;;;;;;15.18;5.50;;;9.40;99.90;;;;;;5144987;28;20199;-34
2021/04/23 09:19:27;;;;;;;15.25;6.18;;;9.30;99.90;;;;;;5145506;28;20255;-33
2021/04/23 09:22:01;;;;;;;14.35;6.43;;;9.40;99.90;;;;;;5145003;28;20200;-34
2021/04/23 09:24:32;;;;;;;16.85;5.97;;;9.30;99.90;;;;;;5145518;28;20188;-35
2021/04/23 09:27:11;;;;;;;13.02;6.38;;;9.30;99.90;;;;;;5144319;28;20198;-34
2021/04/23 09:29:43;;;;;;;16.27;7.15;;;9.20;99.90;;;;;;5145414;28;20202;-36
2021/04/23 09:32:15;;;;;;;13.15;5.45;;;9.20;99.90;;;;;;5144927;28;20210;-34
2021/04/23 09:34:51;;;;;;;12.05;5.47;;;9.20;99.90;;;;;;5145234;28;20213;-35
2021/04/23 09:37:23;;;;;;;13.00;5.40;;;9.30;99.90;;;;;;5144605;28;20207;-37
2021/04/23 09:39:53;;;;;;;10.48;5.25;;;9.20;99.90;;;;;;5144969;28;20211;-36
2021/04/23 09:42:23;;;;;;;9.68;5.20;;;9.30;99.90;;;;;;5146706;27;20616;-35
2021/04/23 09:44:57;;;;;;;10.13;5.35;;;9.30;99.90;;;;;;5093800;27;2043614;-36
2021/04/23 09:47:28;;;;;;;8.45;5.15;;;9.40;99.90;;;;;;5166021;27;20668;-35
2021/04/23 09:50:00;;;;;;;9.68;4.85;;;9.50;99.90;;;;;;5166690;27;20642;-34
2021/04/23 09:52:30;;;;;;;9.80;5.60;;;9.50;99.90;;;;;;5166372;27;20213;-33
2021/04/23 09:55:03;;;;;;;8.48;5.22;;;9.60;99.90;;;;;;5166479;27;20199;-32
2021/04/23 09:57:36;;;;;;;12.93;5.97;;;9.50;99.90;;;;;;5165694;27;20232;-37
2021/04/23 10:00:08;;;;;;;9.50;5.47;;;9.50;99.90;;;;;;5166372;27;20258;-34
2021/04/23 10:02:40;;;;;;;14.73;5.60;;;9.50;99.90;;;;;;5166202;27;20231;-35
2021/04/23 10:05:11;;;;;;;12.50;6.07;;;9.50;99.90;;;;;;5166332;27;20226;-36
2021/04/23 10:07:41;;;;;;;12.68;5.65;;;9.50;99.90;;;;;;5165524;27;20211;-34
2021/04/23 10:10:12;;;;;;;13.40;6.25;;;9.50;99.90;;;;;;5165543;27;20641;-33
2021/04/23 10:12:44;;;;;;;13.65;6.07;;;9.40;99.90;;;;;;5165559;27;20247;-33
2021/04/23 10:15:19;;;;;;;13.93;6.00;;;9.40;99.90;;;;;;5166254;27;20210;-34
2021/04/23 10:17:52;;;;;;;10.05;5.63;;;9.40;99.90;;;;;;5165671;27;20217;-35
2021/04/23 10:20:25;;;;;;;12.93;5.25;;;9.40;99.90;;;;;;5165981;27;20230;-36
2021/04/23 10:22:56;;;;;;;10.80;5.72;;;9.30;99.90;;;;;;5165743;27;20202;-34
2021/04/23 10:25:27;;;;;;;12.27;6.55;;;9.30;99.90;;;;;;5166059;27;20187;-33
2021/04/23 10:27:58;;;;;;;12.43;5.22;;;9.30;99.90;;;;;;5165226;27;20199;-35
2021/04/23 10:30:31;;;;;;;9.63;6.00;;;9.40;99.90;;;;;;5165998;27;20202;-35
2021/04/23 10:33:09;;;;;;;12.65;5.20;;;9.30;99.90;;;;;;5165627;27;20326;-37
2021/04/23 10:35:40;;;;;;;14.13;5.80;;;9.20;99.90;;;;;;5165794;27;20227;-32
2021/04/23 10:38:12;;;;;;;11.85;5.93;;;9.20;99.90;;;;;;5165221;27;20202;-34
2021/04/23 10:40:44;;;;;;;14.13;5.60;;;9.30;99.90;;;;;;5165668;27;20222;-35
2021/04/23 10:43:16;;;;;;;12.73;6.03;;;9.30;99.90;;;;;;5155220;27;20256;-36
2021/04/23 10:45:48;;;;;;;9.32;5.55;;;9.30;99.90;;;;;;5144970;27;20256;-35
2021/04/23 10:48:34;;;;;;;14.73;5.78;;;9.30;99.90;;;;;;5144364;27;20302;-32
2021/04/23 10:51:08;;;;;;;17.10;6.68;;;9.20;99.90;;;;;;5144711;27;20363;-35
2021/04/23 10:53:45;;;;;;;16.27;6.00;;;9.20;99.90;;;;;;5144635;27;20197;-34
2021/04/23 10:56:23;;;;;;;11.18;4.90;;;9.10;99.90;;;;;;5144524;27;20210;-31
2021/04/23 10:58:53;;;;;;;13.88;6.30;;;9.20;99.90;;;;;;5144722;27;20577;-31
2021/04/23 11:01:26;;;;;;;10.82;5.53;;;9.10;99.90;;;;;;5144762;27;20271;-29
2021/04/23 11:04:05;;;;;;;19.45;7.00;;;9.10;99.90;;;;;;5144571;27;20199;-32
2021/04/23 11:06:37;;;;;;;10.10;6.55;;;9.10;99.90;;;;;;5144252;27;20203;-35
2021/04/23 11:09:10;;;;;;;9.23;6.03;;;9.10;99.90;;;;;;5144288;27;20590;-32
2021/04/23 11:11:42;;;;;;;11.95;5.03;;;9.10;99.90;;;;;;5143538;27;20218;-34
2021/04/23 11:14:26;;;;;;;12.10;5.28;;;9.10;99.90;;;;;;5144432;27;20271;-36
2021/04/23 11:17:17;;;;;;;10.00;6.00;;;9.10;99.90;;;;;;5143876;27;20274;-33
2021/04/23 11:19:49;;;;;;;10.82;5.68;;;9.10;99.90;;;;;;5144656;27;20223;-34
2021/04/23 11:22:20;;;;;;;10.48;6.10;;;9.00;99.90;;;;;;5143673;27;20199;-33
2021/04/23 11:25:13;;;;;;;12.30;5.85;;;9.00;99.90;;;;;;5144310;27;20520;-31
2021/04/23 11:28:08;;;;;;;14.65;5.93;;;9.00;99.90;;;;;;5142904;27;20268;-36
2021/04/23 11:30:58;;;;;;;10.80;4.93;;;9.00;99.90;;;;;;5144412;27;20602;-32
2021/04/23 11:33:55;;;;;;;16.65;5.75;;;9.00;99.90;;;;;;5143881;28;20252;-35
2021/04/23 11:36:33;;;;;;;10.30;5.57;;;9.00;99.90;;;;;;5143541;28;20203;-33
2021/04/23 11:39:07;;;;;;;13.10;5.55;;;9.00;99.90;;;;;;5143960;28;20262;-31
2021/04/23 11:41:37;;;;;;;10.27;6.32;;;9.00;99.90;;;;;;5143000;28;20548;-33
2021/04/23 11:44:41;;;;;;;12.88;6.68;;;9.00;99.90;;;;;;5161698;27;20275;-32
2021/04/23 11:47:11;;;;;;;11.75;5.35;;;9.00;99.90;;;;;;5164847;27;20206;-31
2021/04/23 11:49:42;;;;;;;12.32;5.88;;;8.90;99.90;;;;;;5164565;27;20235;-34
2021/04/23 11:52:13;;;;;;;10.88;5.85;;;8.90;99.90;;;;;;5164313;27;20735;-35
2021/04/23 11:54:45;;;;;;;12.88;5.95;;;9.00;99.90;;;;;;5164813;27;20231;-34
2021/04/23 11:57:15;;;;;;;10.55;4.93;;;8.90;99.90;;;;;;5163665;27;20206;-33
2021/04/23 11:59:59;;;;;;;10.73;5.40;;;8.90;99.90;;;;;;5164292;27;20252;-31
2021/04/23 12:02:40;;;;;;;11.25;5.32;;;9.00;99.90;;;;;;5164787;27;20198;-36
2021/04/23 12:05:38;;;;;;;14.80;6.22;;;8.90;99.90;;;;;;5165533;27;20241;-35
2021/04/23 12:08:10;;;;;;;8.07;5.80;;;8.90;99.90;;;;;;5164408;27;20271;-32
2021/04/23 12:10:42;;;;;;;10.45;5.65;;;8.80;99.90;;;;;;5164713;27;20266;-31
2021/04/23 12:13:13;;;;;;;14.98;5.70;;;8.80;99.90;;;;;;5162635;27;20244;-35
2021/04/23 12:15:45;;;;;;;15.77;6.38;;;8.80;99.90;;;;;;5144326;28;20207;-37
2021/04/23 12:18:16;;;;;;;13.10;5.80;;;8.80;99.90;;;;;;5143667;28;20211;-37
2021/04/23 12:20:49;;;;;;;13.85;5.75;;;8.70;99.90;;;;;;5144080;28;20211;-32
2021/04/23 12:23:23;;;;;;;15.35;5.63;;;8.70;99.90;;;;;;5144073;28;20217;-33
2021/04/23 12:25:55;;;;;;;13.23;6.10;;;8.80;99.90;;;;;;5143944;28;20207;-33
2021/04/23 12:28:29;;;;;;;10.43;6.30;;;8.70;99.90;;;;;;5142927;28;20289;-35
2021/04/23 12:31:04;;;;;;;11.68;5.22;;;8.70;99.90;;;;;;5143820;28;20207;-32
2021/04/23 12:33:46;;;;;;;15.07;5.32;;;8.70;99.90;;;;;;5145573;27;20206;-31
2021/04/23 12:36:20;;;;;;;7.88;5.03;;;8.70;99.90;;;;;;5147416;27;20225;-35
2021/04/23 12:38:53;;;;;;;9.70;6.10;;;8.70;99.90;;;;;;5147531;27;20731;-32
2021/04/23 12:41:26;;;;;;;10.13;5.32;;;8.80;99.90;;;;;;5146560;27;20215;-36
2021/04/23 12:43:58;;;;;;;11.75;6.63;;;8.80;99.90;;;;;;5162883;27;20259;-37
2021/04/23 12:46:33;;;;;;;12.13;7.50;;;8.70;99.90;;;;;;5167645;27;20198;-33
2021/04/23 12:49:15;;;;;;;10.07;7.70;;;8.70;99.90;;;;;;5167922;27;20206;-32
2021/04/23 12:51:51;;;;;;;16.80;7.50;;;8.60;99.90;;;;;;5167678;27;20251;-31
2021/04/23 12:54:30;;;;;;;11.43;6.55;;;8.60;99.90;;;;;;5168238;27;20190;-35
2021/04/23 12:57:02;;;;;;;8.50;5.78;;;8.60;99.90;;;;;;5166994;27;20202;-34
2021/04/23 12:59:45;;;;;;;9.85;5.60;;;8.60;99.90;;;;;;5167612;27;20210;-34
2021/04/23 13:02:29;;;;;;;14.35;6.55;;;8.60;99.90;;;;;;5167600;27;20683;-34
2021/04/23 13:05:08;;;;;;;11.20;6.63;;;8.60;99.90;;;;;;5168003;27;20209;-33
2021/04/23 13:07:51;;;;;;;10.93;6.82;;;8.60;99.90;;;;;;5167352;27;20334;-35
2021/04/23 13:10:24;;;;;;;10.20;6.20;;;8.60;99.90;;;;;;5167575;27;20207;-36
2021/04/23 13:13:07;;;;;;;13.02;7.28;;;8.50;99.90;;;;;;5166795;27;20236;-37
2021/04/23 13:15:39;;;;;;;15.38;7.05;;;8.50;99.90;;;;;;5146983;27;20215;-36
2021/04/23 13:18:20;;;;;;;10.30;5.85;;;8.50;99.90;;;;;;5147112;27;20627;-34